TimeCDT,TemperatureF,Dew PointF,Humidity,Sea Level PressureIn,VisibilityMPH,Wind Direction,Wind SpeedMPH,Gust SpeedMPH,PrecipitationIn,Events,Conditions,WindDirDegrees,DateUTC
12:16 AM,73.4,57.2,57,29.89,10.0,North,6.9,-,N/A,,Clear,360,2013-06-29 05:16:00
12:35 AM,73.4,57.2,57,29.89,10.0,North,5.8,-,N/A,,Clear,10,2013-06-29 05:35:00
1:15 AM,73.4,57.2,57,29.89,10.0,North,6.9,-,N/A,,Clear,360,2013-06-29 06:15:00
1:35 AM,71.6,55.4,57,29.89,10.0,North,3.5,-,N/A,,Clear,350,2013-06-29 06:35:00
1:55 AM,71.6,55.4,57,29.90,10.0,Calm,Calm,-,N/A,,Clear,0,2013-06-29 06:55:00
2:15 AM,69.8,55.4,60,29.90,10.0,Calm,Calm,-,N/A,,Clear,0,2013-06-29 07:15:00
2:36 AM,66.2,57.2,73,29.90,10.0,Calm,Calm,-,N/A,,Clear,0,2013-06-29 07:36:00
2:55 AM,-9999,-9999,N/A,29.89,10.0,Calm,Calm,-,N/A,,Clear,0,2013-06-29 07:55:00
3:35 AM,64.4,55.4,73,29.89,10.0,Calm,Calm,-,N/A,,Clear,0,2013-06-29 08:35:00
3:55 AM,-9999,-9999,N/A,29.89,10.0,Calm,Calm,-,N/A,,Clear,0,2013-06-29 08:55:00
4:15 AM,-9999,-9999,N/A,29.89,10.0,West,3.5,-,N/A,,Clear,270,2013-06-29 09:15:00
4:55 AM,64.4,57.2,77,29.90,10.0,WNW,3.5,-,N/A,,Clear,290,2013-06-29 09:55:00
5:16 AM,66.2,55.4,68,29.90,10.0,WNW,4.6,-,N/A,,Clear,300,2013-06-29 10:16:00
5:55 AM,64.4,55.4,73,29.90,10.0,NW,4.6,-,N/A,,Clear,310,2013-06-29 10:55:00
6:15 AM,64.4,55.4,73,29.90,10.0,NW,5.8,-,N/A,,Clear,310,2013-06-29 11:15:00
6:35 AM,64.4,55.4,73,29.90,10.0,NW,3.5,-,N/A,,Clear,310,2013-06-29 11:35:00
6:55 AM,66.2,55.4,68,29.90,10.0,NW,5.8,-,N/A,,Clear,310,2013-06-29 11:55:00
7:15 AM,69.8,57.2,64,29.90,10.0,NW,4.6,-,N/A,,Clear,310,2013-06-29 12:15:00
7:35 AM,69.8,57.2,64,29.90,10.0,NW,3.5,-,N/A,,Clear,320,2013-06-29 12:35:00
7:55 AM,71.6,57.2,60,29.90,10.0,NNW,4.6,-,N/A,,Clear,340,2013-06-29 12:55:00
8:15 AM,73.4,57.2,57,29.91,10.0,North,8.1,-,N/A,,Clear,350,2013-06-29 13:15:00
8:35 AM,73.4,57.2,57,29.91,10.0,NNW,6.9,-,N/A,,Clear,330,2013-06-29 13:35:00
8:55 AM,75.2,57.2,53,29.92,10.0,North,10.4,-,N/A,,Clear,350,2013-06-29 13:55:00
9:15 AM,75.2,57.2,53,29.91,10.0,NNW,11.5,16.1,N/A,,Clear,340,2013-06-29 14:15:00
9:35 AM,75.2,57.2,53,29.91,10.0,North,10.4,-,N/A,,Clear,350,2013-06-29 14:35:00
9:55 AM,77.0,57.2,50,29.91,10.0,NNW,10.4,17.3,N/A,,Clear,330,2013-06-29 14:55:00
10:15 AM,78.8,57.2,47,29.91,10.0,North,6.9,-,N/A,,Clear,360,2013-06-29 15:15:00
10:35 AM,80.6,55.4,42,29.90,10.0,North,13.8,18.4,N/A,,Clear,360,2013-06-29 15:35:00
10:55 AM,80.6,53.6,39,29.90,10.0,North,13.8,18.4,N/A,,Clear,360,2013-06-29 15:55:00
11:55 AM,82.4,53.6,37,29.90,10.0,NNW,10.4,19.6,N/A,,Clear,340,2013-06-29 16:55:00
12:35 PM,82.4,53.6,37,29.90,10.0,NNW,10.4,20.7,N/A,,Partly Cloudy,330,2013-06-29 17:35:00
12:55 PM,84.2,51.8,33,29.89,10.0,NNW,16.1,25.3,N/A,,Partly Cloudy,340,2013-06-29 17:55:00
1:16 PM,84.2,51.8,33,29.88,10.0,North,19.6,27.6,N/A,,Partly Cloudy,350,2013-06-29 18:16:00
1:35 PM,82.4,51.8,35,29.87,10.0,NNW,12.7,24.2,N/A,,Scattered Clouds,330,2013-06-29 18:35:00
1:55 PM,84.2,51.8,33,29.87,10.0,NW,13.8,23.0,N/A,,Scattered Clouds,320,2013-06-29 18:55:00
2:15 PM,84.2,50.0,30,29.86,10.0,NNW,17.3,24.2,N/A,,Partly Cloudy,330,2013-06-29 19:15:00
2:35 PM,84.2,50.0,30,29.86,10.0,North,13.8,23.0,N/A,,Clear,360,2013-06-29 19:35:00
2:55 PM,84.2,50.0,30,29.85,10.0,NNW,15.0,23.0,N/A,,Clear,340,2013-06-29 19:55:00
3:15 PM,84.2,51.8,33,29.85,10.0,NNW,15.0,28.8,N/A,,Scattered Clouds,340,2013-06-29 20:15:00
3:35 PM,84.2,51.8,33,29.85,10.0,North,19.6,23.0,N/A,,Partly Cloudy,350,2013-06-29 20:35:00
3:55 PM,84.2,51.8,33,29.85,10.0,North,20.7,26.5,N/A,,Clear,350,2013-06-29 20:55:00
4:15 PM,84.2,51.8,33,29.85,10.0,NW,12.7,25.3,N/A,,Partly Cloudy,320,2013-06-29 21:15:00
4:35 PM,84.2,50.0,30,29.85,10.0,NW,11.5,25.3,N/A,,Clear,320,2013-06-29 21:35:00
4:55 PM,84.2,50.0,30,29.84,10.0,NNW,10.4,19.6,N/A,,Partly Cloudy,340,2013-06-29 21:55:00
5:16 PM,84.2,51.8,33,29.84,10.0,NNW,11.5,20.7,N/A,,Clear,330,2013-06-29 22:16:00
5:35 PM,84.2,50.0,30,29.83,10.0,NW,13.8,21.9,N/A,,Clear,320,2013-06-29 22:35:00
5:55 PM,84.2,51.8,33,29.83,10.0,NW,13.8,18.4,N/A,,Partly Cloudy,310,2013-06-29 22:55:00
6:16 PM,84.2,51.8,33,29.83,10.0,NNW,12.7,21.9,N/A,,Partly Cloudy,340,2013-06-29 23:16:00
6:35 PM,82.4,51.8,35,29.83,10.0,NNW,13.8,18.4,N/A,,Clear,340,2013-06-29 23:35:00
6:55 PM,82.4,50.0,32,29.83,10.0,NNW,10.4,-,N/A,,Clear,340,2013-06-29 23:55:00
7:15 PM,82.4,51.8,35,29.83,10.0,NNW,10.4,16.1,N/A,,Clear,340,2013-06-30 00:15:00
7:35 PM,80.6,51.8,37,29.83,10.0,NNW,8.1,-,N/A,,Clear,340,2013-06-30 00:35:00
7:55 PM,80.6,51.8,37,29.83,10.0,NNW,6.9,-,N/A,,Clear,340,2013-06-30 00:55:00
8:15 PM,78.8,51.8,39,29.83,10.0,NNW,4.6,-,N/A,,Clear,330,2013-06-30 01:15:00
8:35 PM,78.8,51.8,39,29.83,10.0,NNW,4.6,-,N/A,,Clear,340,2013-06-30 01:35:00
8:55 PM,77.0,51.8,41,29.83,10.0,NNW,5.8,-,N/A,,Clear,330,2013-06-30 01:55:00
9:15 PM,75.2,51.8,44,29.84,10.0,NNW,4.6,-,N/A,,Clear,340,2013-06-30 02:15:00
9:35 PM,75.2,51.8,44,29.84,10.0,NNW,5.8,-,N/A,,Clear,340,2013-06-30 02:35:00
9:55 PM,73.4,51.8,47,29.85,10.0,NNW,3.5,-,N/A,,Clear,340,2013-06-30 02:55:00
10:15 PM,73.4,51.8,47,29.85,10.0,NNW,6.9,-,N/A,,Clear,330,2013-06-30 03:15:00
10:35 PM,73.4,51.8,47,29.85,10.0,NNW,4.6,-,N/A,,Clear,330,2013-06-30 03:35:00
10:55 PM,71.6,51.8,50,29.86,10.0,NW,4.6,-,N/A,,Clear,320,2013-06-30 03:55:00
11:15 PM,71.6,51.8,50,29.86,10.0,NNW,3.5,-,N/A,,Clear,330,2013-06-30 04:15:00
11:35 PM,71.6,51.8,50,29.86,10.0,NNW,6.9,-,N/A,,Clear,340,2013-06-30 04:35:00
11:55 PM,71.6,51.8,50,29.86,10.0,North,4.6,-,N/A,,Clear,350,2013-06-30 04:55:00